Sao Jose do Jacuri, Brazil
Current Conditions -  °F | °C
As of 4:27 PM on Sunday 21 Dec 2014 (Local Time) from SBLS Reporting Station
Thunderstorm Thunderstorm  
Wind Chill: 72°   Ceiling: 3000
Heat Index: 72°   Visibility: 0.56mi
Dew Point: 68°   Wind: 10mph
Humidity: 88%   Direction: 20°NNE
Pressure: 29.97"   Gusts: 22mph
Location:  18.28°S, 42.68°W
Report Text: SBLS 211827Z 02009G19KT 0900 TSRA SCT004 BKN030 FEW035CB 22/20 Q1015
Loading
Personal Weather Stations






























Interactive Weather Map New forecast layout! Learn more

10-Day Weather Forecast

Advertisements
Track Severe Weather on mobile